sensor_id;sensor_type;location;lat;lon;timestamp;temperature;humidity
17381;DHT22;8808;52.478;13.378;2023-08-06T00:00:58;17.80;99.90
17381;DHT22;8808;52.478;13.378;2023-08-06T00:03:25;17.90;99.90
17381;DHT22;8808;52.478;13.378;2023-08-06T00:05:52;17.90;99.90
17381;DHT22;8808;52.478;13.378;2023-08-06T00:08:19;17.80;99.90
17381;DHT22;8808;52.478;13.378;2023-08-06T00:10:48;17.90;99.90
17381;DHT22;8808;52.478;13.378;2023-08-06T00:13:15;17.80;99.90
17381;DHT22;8808;52.478;13.378;2023-08-06T00:15:42;17.80;99.90
17381;DHT22;8808;52.478;13.378;2023-08-06T00:18:09;17.80;99.90
17381;DHT22;8808;52.478;13.378;2023-08-06T00:20:38;17.80;99.90
17381;DHT22;8808;52.478;13.378;2023-08-06T00:23:05;17.70;99.90
17381;DHT22;8808;52.478;13.378;2023-08-06T00:25:33;17.70;99.90
17381;DHT22;8808;52.478;13.378;2023-08-06T00:28:01;17.80;99.90
17381;DHT22;8808;52.478;13.378;2023-08-06T00:30:28;17.70;99.90
17381;DHT22;8808;52.478;13.378;2023-08-06T00:32:55;17.80;99.90
17381;DHT22;8808;52.478;13.378;2023-08-06T00:35:21;17.80;99.90
17381;DHT22;8808;52.478;13.378;2023-08-06T00:37:48;17.70;99.90
17381;DHT22;8808;52.478;13.378;2023-08-06T00:40:15;17.60;99.90
17381;DHT22;8808;52.478;13.378;2023-08-06T00:42:42;17.70;99.90
17381;DHT22;8808;52.478;13.378;2023-08-06T00:45:13;17.70;99.90
17381;DHT22;8808;52.478;13.378;2023-08-06T00:47:40;17.70;99.90
17381;DHT22;8808;52.478;13.378;2023-08-06T00:50:08;17.60;99.90
17381;DHT22;8808;52.478;13.378;2023-08-06T00:52:36;17.60;99.90
17381;DHT22;8808;52.478;13.378;2023-08-06T00:55:03;17.70;99.90
17381;DHT22;8808;52.478;13.378;2023-08-06T00:57:31;17.70;99.90
17381;DHT22;8808;52.478;13.378;2023-08-06T00:59:58;17.70;99.90
17381;DHT22;8808;52.478;13.378;2023-08-06T01:02:33;17.70;99.90
17381;DHT22;8808;52.478;13.378;2023-08-06T01:05:00;17.60;99.90
17381;DHT22;8808;52.478;13.378;2023-08-06T01:07:41;17.60;99.90
17381;DHT22;8808;52.478;13.378;2023-08-06T01:10:23;17.60;99.90
17381;DHT22;8808;52.478;13.378;2023-08-06T01:12:55;17.60;99.90
17381;DHT22;8808;52.478;13.378;2023-08-06T01:15:27;17.50;99.90
17381;DHT22;8808;52.478;13.378;2023-08-06T01:17:57;17.50;99.90
17381;DHT22;8808;52.478;13.378;2023-08-06T01:20:29;17.50;99.90
17381;DHT22;8808;52.478;13.378;2023-08-06T01:22:56;17.50;99.90
17381;DHT22;8808;52.478;13.378;2023-08-06T01:25:29;17.40;99.90
17381;DHT22;8808;52.478;13.378;2023-08-06T01:28:00;17.40;99.90
17381;DHT22;8808;52.478;13.378;2023-08-06T01:30:32;17.50;99.90
17381;DHT22;8808;52.478;13.378;2023-08-06T01:33:04;17.40;99.90
17381;DHT22;8808;52.478;13.378;2023-08-06T01:35:33;17.40;99.90
17381;DHT22;8808;52.478;13.378;2023-08-06T01:38:02;17.30;99.90
17381;DHT22;8808;52.478;13.378;2023-08-06T01:40:30;17.40;99.90
17381;DHT22;8808;52.478;13.378;2023-08-06T01:42:58;17.40;99.90
17381;DHT22;8808;52.478;13.378;2023-08-06T01:45:25;17.30;99.90
17381;DHT22;8808;52.478;13.378;2023-08-06T01:47:52;17.30;99.90
17381;DHT22;8808;52.478;13.378;2023-08-06T01:50:19;17.30;99.90
17381;DHT22;8808;52.478;13.378;2023-08-06T01:52:47;17.30;99.90
17381;DHT22;8808;52.478;13.378;2023-08-06T01:55:14;17.20;99.90
17381;DHT22;8808;52.478;13.378;2023-08-06T01:57:41;17.30;99.90
17381;DHT22;8808;52.478;13.378;2023-08-06T02:00:09;17.20;99.90
17381;DHT22;8808;52.478;13.378;2023-08-06T02:02:36;17.20;99.90
17381;DHT22;8808;52.478;13.378;2023-08-06T02:05:03;17.10;99.90
17381;DHT22;8808;52.478;13.378;2023-08-06T02:07:30;17.20;99.90
17381;DHT22;8808;52.478;13.378;2023-08-06T02:09:59;17.10;99.90
17381;DHT22;8808;52.478;13.378;2023-08-06T02:12:25;17.10;99.90
17381;DHT22;8808;52.478;13.378;2023-08-06T02:14:52;17.10;99.90
17381;DHT22;8808;52.478;13.378;2023-08-06T02:17:19;17.00;99.90
17381;DHT22;8808;52.478;13.378;2023-08-06T02:19:46;17.10;99.90
17381;DHT22;8808;52.478;13.378;2023-08-06T02:22:13;17.10;99.90
17381;DHT22;8808;52.478;13.378;2023-08-06T02:24:40;17.00;99.90
17381;DHT22;8808;52.478;13.378;2023-08-06T02:27:08;17.10;99.90
17381;DHT22;8808;52.478;13.378;2023-08-06T02:29:35;17.00;99.90
17381;DHT22;8808;52.478;13.378;2023-08-06T02:32:02;17.00;99.90
17381;DHT22;8808;52.478;13.378;2023-08-06T02:34:30;16.90;99.90
17381;DHT22;8808;52.478;13.378;2023-08-06T02:36:57;16.90;99.90
17381;DHT22;8808;52.478;13.378;2023-08-06T02:39:23;16.90;99.90
17381;DHT22;8808;52.478;13.378;2023-08-06T02:41:51;18.00;99.90
17381;DHT22;8808;52.478;13.378;2023-08-06T02:44:19;16.90;99.90
17381;DHT22;8808;52.478;13.378;2023-08-06T02:46:46;16.90;99.90
17381;DHT22;8808;52.478;13.378;2023-08-06T02:49:13;16.90;99.90
17381;DHT22;8808;52.478;13.378;2023-08-06T02:51:40;16.80;99.90
17381;DHT22;8808;52.478;13.378;2023-08-06T02:54:07;16.70;99.90
17381;DHT22;8808;52.478;13.378;2023-08-06T02:56:34;16.70;99.90
17381;DHT22;8808;52.478;13.378;2023-08-06T02:59:01;16.80;99.90
17381;DHT22;8808;52.478;13.378;2023-08-06T03:01:29;16.70;99.90
17381;DHT22;8808;52.478;13.378;2023-08-06T03:03:56;16.70;99.90
17381;DHT22;8808;52.478;13.378;2023-08-06T03:06:23;16.60;99.90
17381;DHT22;8808;52.478;13.378;2023-08-06T03:08:50;16.70;99.90
17381;DHT22;8808;52.478;13.378;2023-08-06T03:11:17;16.80;99.90
17381;DHT22;8808;52.478;13.378;2023-08-06T03:13:44;16.70;99.90
17381;DHT22;8808;52.478;13.378;2023-08-06T03:16:11;16.60;99.90
17381;DHT22;8808;52.478;13.378;2023-08-06T03:18:39;16.70;99.90
17381;DHT22;8808;52.478;13.378;2023-08-06T03:21:06;16.60;99.90
17381;DHT22;8808;52.478;13.378;2023-08-06T03:23:33;16.50;99.90
17381;DHT22;8808;52.478;13.378;2023-08-06T03:26:01;16.40;99.90
17381;DHT22;8808;52.478;13.378;2023-08-06T03:28:29;16.40;99.90
17381;DHT22;8808;52.478;13.378;2023-08-06T03:30:59;16.40;99.90
17381;DHT22;8808;52.478;13.378;2023-08-06T03:33:27;16.40;99.90
17381;DHT22;8808;52.478;13.378;2023-08-06T03:35:55;16.40;99.90
17381;DHT22;8808;52.478;13.378;2023-08-06T03:38:22;16.40;99.90
17381;DHT22;8808;52.478;13.378;2023-08-06T03:40:49;16.50;99.90
17381;DHT22;8808;52.478;13.378;2023-08-06T03:43:17;16.40;99.90
17381;DHT22;8808;52.478;13.378;2023-08-06T03:45:44;16.40;99.90
17381;DHT22;8808;52.478;13.378;2023-08-06T03:48:11;16.40;99.90
17381;DHT22;8808;52.478;13.378;2023-08-06T03:50:38;16.40;99.90
17381;DHT22;8808;52.478;13.378;2023-08-06T03:53:06;16.40;99.90
17381;DHT22;8808;52.478;13.378;2023-08-06T03:55:33;16.40;99.90
17381;DHT22;8808;52.478;13.378;2023-08-06T04:07:49;16.40;99.90
17381;DHT22;8808;52.478;13.378;2023-08-06T04:10:17;16.40;99.90
17381;DHT22;8808;52.478;13.378;2023-08-06T04:12:44;16.20;99.90
17381;DHT22;8808;52.478;13.378;2023-08-06T04:15:11;16.30;99.90
17381;DHT22;8808;52.478;13.378;2023-08-06T04:17:38;16.30;99.90
17381;DHT22;8808;52.478;13.378;2023-08-06T04:20:06;16.20;99.90
17381;DHT22;8808;52.478;13.378;2023-08-06T04:22:33;16.30;99.90
17381;DHT22;8808;52.478;13.378;2023-08-06T04:25:00;16.30;99.90
17381;DHT22;8808;52.478;13.378;2023-08-06T04:27:29;16.30;99.90
17381;DHT22;8808;52.478;13.378;2023-08-06T04:29:56;16.30;99.90
17381;DHT22;8808;52.478;13.378;2023-08-06T04:32:23;16.30;99.90
17381;DHT22;8808;52.478;13.378;2023-08-06T04:34:51;16.30;99.90
17381;DHT22;8808;52.478;13.378;2023-08-06T04:37:17;16.20;99.90
17381;DHT22;8808;52.478;13.378;2023-08-06T04:39:44;16.30;99.90
17381;DHT22;8808;52.478;13.378;2023-08-06T04:42:11;16.20;99.90
17381;DHT22;8808;52.478;13.378;2023-08-06T04:44:39;16.20;99.90
17381;DHT22;8808;52.478;13.378;2023-08-06T04:47:06;16.20;99.90
17381;DHT22;8808;52.478;13.378;2023-08-06T04:49:33;16.20;99.90
17381;DHT22;8808;52.478;13.378;2023-08-06T04:52:00;16.20;99.90
17381;DHT22;8808;52.478;13.378;2023-08-06T04:54:27;16.30;99.90
17381;DHT22;8808;52.478;13.378;2023-08-06T04:56:54;16.40;99.90
17381;DHT22;8808;52.478;13.378;2023-08-06T04:59:21;16.30;99.90
17381;DHT22;8808;52.478;13.378;2023-08-06T05:01:49;16.30;99.90
17381;DHT22;8808;52.478;13.378;2023-08-06T05:04:16;16.30;99.90
17381;DHT22;8808;52.478;13.378;2023-08-06T05:06:43;16.30;99.90
17381;DHT22;8808;52.478;13.378;2023-08-06T05:09:10;16.30;99.90
17381;DHT22;8808;52.478;13.378;2023-08-06T05:11:37;16.40;99.90
17381;DHT22;8808;52.478;13.378;2023-08-06T05:14:04;16.30;99.90
17381;DHT22;8808;52.478;13.378;2023-08-06T05:16:31;16.30;99.90
17381;DHT22;8808;52.478;13.378;2023-08-06T05:18:59;16.30;99.90
17381;DHT22;8808;52.478;13.378;2023-08-06T05:21:26;16.20;99.90
17381;DHT22;8808;52.478;13.378;2023-08-06T05:23:53;16.30;99.90
17381;DHT22;8808;52.478;13.378;2023-08-06T05:26:20;16.40;99.90
17381;DHT22;8808;52.478;13.378;2023-08-06T05:28:48;16.30;99.90
17381;DHT22;8808;52.478;13.378;2023-08-06T05:33:43;16.20;99.90
17381;DHT22;8808;52.478;13.378;2023-08-06T05:36:12;16.10;99.90
17381;DHT22;8808;52.478;13.378;2023-08-06T05:38:39;16.10;99.90
17381;DHT22;8808;52.478;13.378;2023-08-06T05:41:05;16.30;99.90
17381;DHT22;8808;52.478;13.378;2023-08-06T05:43:32;16.30;99.90
17381;DHT22;8808;52.478;13.378;2023-08-06T05:45:59;16.20;99.90
17381;DHT22;8808;52.478;13.378;2023-08-06T05:48:27;16.30;99.90
17381;DHT22;8808;52.478;13.378;2023-08-06T05:50:53;16.50;99.90
17381;DHT22;8808;52.478;13.378;2023-08-06T05:53:22;16.40;99.90
17381;DHT22;8808;52.478;13.378;2023-08-06T05:55:49;16.50;99.90
17381;DHT22;8808;52.478;13.378;2023-08-06T05:58:15;16.30;99.90
17381;DHT22;8808;52.478;13.378;2023-08-06T06:00:43;16.40;99.90
17381;DHT22;8808;52.478;13.378;2023-08-06T06:03:10;16.50;99.90
17381;DHT22;8808;52.478;13.378;2023-08-06T06:05:37;16.40;99.90
17381;DHT22;8808;52.478;13.378;2023-08-06T06:08:05;16.40;99.90
17381;DHT22;8808;52.478;13.378;2023-08-06T06:10:33;16.40;99.90
17381;DHT22;8808;52.478;13.378;2023-08-06T06:13:01;16.40;99.90
17381;DHT22;8808;52.478;13.378;2023-08-06T06:15:28;16.50;99.90
17381;DHT22;8808;52.478;13.378;2023-08-06T06:17:55;16.40;99.90
17381;DHT22;8808;52.478;13.378;2023-08-06T06:20:23;16.50;99.90
17381;DHT22;8808;52.478;13.378;2023-08-06T06:22:50;16.40;99.90
17381;DHT22;8808;52.478;13.378;2023-08-06T06:25:17;16.60;99.90
17381;DHT22;8808;52.478;13.378;2023-08-06T06:27:45;16.60;99.90
17381;DHT22;8808;52.478;13.378;2023-08-06T06:30:12;16.60;99.90
17381;DHT22;8808;52.478;13.378;2023-08-06T06:32:40;16.50;99.90
17381;DHT22;8808;52.478;13.378;2023-08-06T06:35:08;16.60;99.90
17381;DHT22;8808;52.478;13.378;2023-08-06T06:37:35;16.60;99.90
17381;DHT22;8808;52.478;13.378;2023-08-06T06:40:02;16.60;99.90
17381;DHT22;8808;52.478;13.378;2023-08-06T06:42:29;16.70;99.90
17381;DHT22;8808;52.478;13.378;2023-08-06T06:44:57;16.60;99.90
17381;DHT22;8808;52.478;13.378;2023-08-06T06:47:24;16.60;99.90
17381;DHT22;8808;52.478;13.378;2023-08-06T06:49:51;16.60;99.90
17381;DHT22;8808;52.478;13.378;2023-08-06T06:52:18;16.60;99.90
17381;DHT22;8808;52.478;13.378;2023-08-06T06:54:45;16.60;99.90
17381;DHT22;8808;52.478;13.378;2023-08-06T06:57:12;16.70;99.90
17381;DHT22;8808;52.478;13.378;2023-08-06T06:59:39;16.70;99.90
17381;DHT22;8808;52.478;13.378;2023-08-06T07:02:07;16.80;99.90
17381;DHT22;8808;52.478;13.378;2023-08-06T07:04:34;16.70;99.90
17381;DHT22;8808;52.478;13.378;2023-08-06T07:07:01;16.80;99.90
17381;DHT22;8808;52.478;13.378;2023-08-06T07:09:28;16.80;99.90
17381;DHT22;8808;52.478;13.378;2023-08-06T07:11:55;16.80;99.90
17381;DHT22;8808;52.478;13.378;2023-08-06T07:14:24;16.80;99.90
17381;DHT22;8808;52.478;13.378;2023-08-06T07:16:51;16.90;99.90
17381;DHT22;8808;52.478;13.378;2023-08-06T07:19:19;16.90;99.90
17381;DHT22;8808;52.478;13.378;2023-08-06T07:21:46;16.90;99.90
17381;DHT22;8808;52.478;13.378;2023-08-06T07:24:13;16.90;99.90
17381;DHT22;8808;52.478;13.378;2023-08-06T07:26:40;17.00;99.90
17381;DHT22;8808;52.478;13.378;2023-08-06T07:29:07;17.10;99.90
17381;DHT22;8808;52.478;13.378;2023-08-06T07:31:34;16.90;99.90
17381;DHT22;8808;52.478;13.378;2023-08-06T07:34:01;17.00;99.90
17381;DHT22;8808;52.478;13.378;2023-08-06T07:36:29;17.00;99.90
17381;DHT22;8808;52.478;13.378;2023-08-06T07:38:56;16.90;99.90
17381;DHT22;8808;52.478;13.378;2023-08-06T07:41:23;16.90;99.90
17381;DHT22;8808;52.478;13.378;2023-08-06T07:43:50;17.00;99.90
17381;DHT22;8808;52.478;13.378;2023-08-06T07:46:17;16.90;99.90
17381;DHT22;8808;52.478;13.378;2023-08-06T07:48:44;16.90;99.90
17381;DHT22;8808;52.478;13.378;2023-08-06T07:51:11;17.00;99.90
17381;DHT22;8808;52.478;13.378;2023-08-06T07:53:39;17.00;99.90
17381;DHT22;8808;52.478;13.378;2023-08-06T07:56:06;17.10;99.90
17381;DHT22;8808;52.478;13.378;2023-08-06T07:58:33;17.10;99.90
17381;DHT22;8808;52.478;13.378;2023-08-06T08:01:00;17.10;99.90
17381;DHT22;8808;52.478;13.378;2023-08-06T08:03:27;17.00;99.90
17381;DHT22;8808;52.478;13.378;2023-08-06T08:05:55;17.10;99.90
17381;DHT22;8808;52.478;13.378;2023-08-06T08:08:24;17.10;99.90
17381;DHT22;8808;52.478;13.378;2023-08-06T08:10:53;17.20;99.90
17381;DHT22;8808;52.478;13.378;2023-08-06T08:13:20;17.20;99.90
17381;DHT22;8808;52.478;13.378;2023-08-06T08:15:47;17.10;99.90
17381;DHT22;8808;52.478;13.378;2023-08-06T08:18:14;17.20;99.90
17381;DHT22;8808;52.478;13.378;2023-08-06T08:20:41;17.20;99.90
17381;DHT22;8808;52.478;13.378;2023-08-06T08:23:08;17.30;99.90
17381;DHT22;8808;52.478;13.378;2023-08-06T08:25:35;17.20;99.90
17381;DHT22;8808;52.478;13.378;2023-08-06T08:28:03;17.20;99.90
17381;DHT22;8808;52.478;13.378;2023-08-06T08:30:30;17.30;99.90
17381;DHT22;8808;52.478;13.378;2023-08-06T08:32:57;17.40;99.90
17381;DHT22;8808;52.478;13.378;2023-08-06T08:35:24;17.30;99.90
17381;DHT22;8808;52.478;13.378;2023-08-06T08:37:51;17.40;99.90
17381;DHT22;8808;52.478;13.378;2023-08-06T08:40:18;17.50;99.90
17381;DHT22;8808;52.478;13.378;2023-08-06T08:42:46;17.40;99.90
17381;DHT22;8808;52.478;13.378;2023-08-06T08:45:15;17.50;99.90
17381;DHT22;8808;52.478;13.378;2023-08-06T08:47:42;17.50;99.90
17381;DHT22;8808;52.478;13.378;2023-08-06T08:50:10;17.60;99.90
17381;DHT22;8808;52.478;13.378;2023-08-06T08:52:39;17.70;99.90
17381;DHT22;8808;52.478;13.378;2023-08-06T08:55:07;17.70;99.90
17381;DHT22;8808;52.478;13.378;2023-08-06T08:57:34;17.80;99.90
17381;DHT22;8808;52.478;13.378;2023-08-06T09:00:01;17.70;99.90
17381;DHT22;8808;52.478;13.378;2023-08-06T09:02:32;17.70;99.90
17381;DHT22;8808;52.478;13.378;2023-08-06T09:05:00;17.60;99.90
17381;DHT22;8808;52.478;13.378;2023-08-06T09:07:30;17.70;99.90
17381;DHT22;8808;52.478;13.378;2023-08-06T09:09:59;17.50;99.90
17381;DHT22;8808;52.478;13.378;2023-08-06T09:12:29;17.60;99.90
17381;DHT22;8808;52.478;13.378;2023-08-06T09:14:56;17.70;99.90
17381;DHT22;8808;52.478;13.378;2023-08-06T09:17:23;17.70;99.90
17381;DHT22;8808;52.478;13.378;2023-08-06T09:19:52;17.80;99.90
17381;DHT22;8808;52.478;13.378;2023-08-06T09:22:19;17.80;99.90
17381;DHT22;8808;52.478;13.378;2023-08-06T09:24:46;17.80;99.90
17381;DHT22;8808;52.478;13.378;2023-08-06T09:27:13;17.80;99.90
17381;DHT22;8808;52.478;13.378;2023-08-06T09:29:41;17.80;99.90
17381;DHT22;8808;52.478;13.378;2023-08-06T09:32:09;17.90;99.90
17381;DHT22;8808;52.478;13.378;2023-08-06T09:34:39;17.90;99.90
17381;DHT22;8808;52.478;13.378;2023-08-06T09:37:08;17.80;99.90
17381;DHT22;8808;52.478;13.378;2023-08-06T09:39:37;17.80;99.90
17381;DHT22;8808;52.478;13.378;2023-08-06T09:42:04;17.90;99.90
17381;DHT22;8808;52.478;13.378;2023-08-06T09:44:32;17.90;99.90
17381;DHT22;8808;52.478;13.378;2023-08-06T09:47:01;17.80;99.90
17381;DHT22;8808;52.478;13.378;2023-08-06T09:49:41;17.80;99.90
17381;DHT22;8808;52.478;13.378;2023-08-06T09:52:11;17.80;99.90
17381;DHT22;8808;52.478;13.378;2023-08-06T09:54:39;17.80;99.90
17381;DHT22;8808;52.478;13.378;2023-08-06T09:57:06;17.80;99.90
17381;DHT22;8808;52.478;13.378;2023-08-06T09:59:33;17.90;99.90
17381;DHT22;8808;52.478;13.378;2023-08-06T10:02:01;17.90;99.90
17381;DHT22;8808;52.478;13.378;2023-08-06T10:04:29;17.90;99.90
17381;DHT22;8808;52.478;13.378;2023-08-06T10:06:56;17.90;99.90
17381;DHT22;8808;52.478;13.378;2023-08-06T10:09:26;18.00;99.90
17381;DHT22;8808;52.478;13.378;2023-08-06T10:11:54;18.00;99.90
17381;DHT22;8808;52.478;13.378;2023-08-06T10:14:24;17.90;99.90
17381;DHT22;8808;52.478;13.378;2023-08-06T10:16:53;17.90;99.90
17381;DHT22;8808;52.478;13.378;2023-08-06T10:19:21;17.80;99.90
17381;DHT22;8808;52.478;13.378;2023-08-06T10:22:08;17.80;99.90
17381;DHT22;8808;52.478;13.378;2023-08-06T10:24:47;17.80;99.90
17381;DHT22;8808;52.478;13.378;2023-08-06T10:27:20;17.80;99.90
17381;DHT22;8808;52.478;13.378;2023-08-06T10:29:47;17.70;99.90
17381;DHT22;8808;52.478;13.378;2023-08-06T10:32:14;17.70;99.90
17381;DHT22;8808;52.478;13.378;2023-08-06T10:34:55;17.70;99.90
17381;DHT22;8808;52.478;13.378;2023-08-06T10:37:23;17.90;99.90
17381;DHT22;8808;52.478;13.378;2023-08-06T10:39:52;17.80;99.90
17381;DHT22;8808;52.478;13.378;2023-08-06T10:42:22;17.80;99.90
17381;DHT22;8808;52.478;13.378;2023-08-06T10:45:14;17.80;99.90
17381;DHT22;8808;52.478;13.378;2023-08-06T10:47:41;17.90;99.90
17381;DHT22;8808;52.478;13.378;2023-08-06T10:50:11;17.80;99.90
17381;DHT22;8808;52.478;13.378;2023-08-06T10:52:38;17.80;99.90
17381;DHT22;8808;52.478;13.378;2023-08-06T10:55:08;17.80;99.90
17381;DHT22;8808;52.478;13.378;2023-08-06T10:57:35;17.80;99.90
17381;DHT22;8808;52.478;13.378;2023-08-06T11:00:04;17.80;99.90
17381;DHT22;8808;52.478;13.378;2023-08-06T11:02:33;17.80;99.90
17381;DHT22;8808;52.478;13.378;2023-08-06T11:05:05;17.90;99.90
17381;DHT22;8808;52.478;13.378;2023-08-06T11:07:32;17.80;99.90
17381;DHT22;8808;52.478;13.378;2023-08-06T11:10:03;17.90;99.90
17381;DHT22;8808;52.478;13.378;2023-08-06T11:12:32;17.90;99.90
17381;DHT22;8808;52.478;13.378;2023-08-06T11:15:00;17.90;99.90
17381;DHT22;8808;52.478;13.378;2023-08-06T11:17:28;17.90;99.90
17381;DHT22;8808;52.478;13.378;2023-08-06T11:19:55;17.90;99.90
17381;DHT22;8808;52.478;13.378;2023-08-06T11:22:23;17.90;99.90
17381;DHT22;8808;52.478;13.378;2023-08-06T11:24:49;17.80;99.90
17381;DHT22;8808;52.478;13.378;2023-08-06T11:27:17;17.80;99.90
17381;DHT22;8808;52.478;13.378;2023-08-06T11:29:45;17.80;99.90
17381;DHT22;8808;52.478;13.378;2023-08-06T11:32:12;17.80;99.90
17381;DHT22;8808;52.478;13.378;2023-08-06T11:34:40;17.70;99.90
17381;DHT22;8808;52.478;13.378;2023-08-06T11:37:07;17.60;99.90
17381;DHT22;8808;52.478;13.378;2023-08-06T11:39:34;17.70;99.90
17381;DHT22;8808;52.478;13.378;2023-08-06T11:42:03;17.70;99.90
17381;DHT22;8808;52.478;13.378;2023-08-06T11:44:31;17.70;99.90
17381;DHT22;8808;52.478;13.378;2023-08-06T11:47:01;17.70;99.90
17381;DHT22;8808;52.478;13.378;2023-08-06T11:49:40;17.80;99.90
17381;DHT22;8808;52.478;13.378;2023-08-06T11:52:12;17.80;99.90
17381;DHT22;8808;52.478;13.378;2023-08-06T11:54:39;17.80;99.90
17381;DHT22;8808;52.478;13.378;2023-08-06T11:57:06;17.80;99.90
17381;DHT22;8808;52.478;13.378;2023-08-06T11:59:34;17.70;99.90
17381;DHT22;8808;52.478;13.378;2023-08-06T12:02:04;17.80;99.90
17381;DHT22;8808;52.478;13.378;2023-08-06T12:04:32;17.70;99.90
17381;DHT22;8808;52.478;13.378;2023-08-06T12:07:17;17.60;99.90
17381;DHT22;8808;52.478;13.378;2023-08-06T12:09:44;17.50;99.90
17381;DHT22;8808;52.478;13.378;2023-08-06T12:12:11;17.60;99.90
17381;DHT22;8808;52.478;13.378;2023-08-06T12:14:38;17.50;99.90
17381;DHT22;8808;52.478;13.378;2023-08-06T12:17:07;17.50;99.90
17381;DHT22;8808;52.478;13.378;2023-08-06T12:19:34;17.50;99.90
17381;DHT22;8808;52.478;13.378;2023-08-06T12:22:01;17.60;99.90
17381;DHT22;8808;52.478;13.378;2023-08-06T12:24:29;17.60;99.90
17381;DHT22;8808;52.478;13.378;2023-08-06T12:26:57;17.50;99.90
17381;DHT22;8808;52.478;13.378;2023-08-06T12:29:25;17.50;99.90
17381;DHT22;8808;52.478;13.378;2023-08-06T12:31:52;17.50;99.90
17381;DHT22;8808;52.478;13.378;2023-08-06T12:34:20;17.50;99.90
17381;DHT22;8808;52.478;13.378;2023-08-06T12:36:47;17.50;99.90
17381;DHT22;8808;52.478;13.378;2023-08-06T12:39:14;17.50;99.90
17381;DHT22;8808;52.478;13.378;2023-08-06T12:41:41;17.40;99.90
17381;DHT22;8808;52.478;13.378;2023-08-06T12:44:11;17.40;99.90
17381;DHT22;8808;52.478;13.378;2023-08-06T12:46:38;17.40;99.90
17381;DHT22;8808;52.478;13.378;2023-08-06T12:49:05;17.40;99.90
17381;DHT22;8808;52.478;13.378;2023-08-06T12:51:33;17.40;99.90
17381;DHT22;8808;52.478;13.378;2023-08-06T12:54:00;17.40;99.90
17381;DHT22;8808;52.478;13.378;2023-08-06T12:56:27;17.40;99.90
17381;DHT22;8808;52.478;13.378;2023-08-06T12:58:54;17.40;99.90
17381;DHT22;8808;52.478;13.378;2023-08-06T13:01:21;17.40;99.90
17381;DHT22;8808;52.478;13.378;2023-08-06T13:03:48;17.40;99.90
17381;DHT22;8808;52.478;13.378;2023-08-06T13:06:15;17.40;99.90
17381;DHT22;8808;52.478;13.378;2023-08-06T13:08:43;17.30;99.90
17381;DHT22;8808;52.478;13.378;2023-08-06T13:11:10;17.50;99.90
17381;DHT22;8808;52.478;13.378;2023-08-06T13:13:37;17.50;99.90
17381;DHT22;8808;52.478;13.378;2023-08-06T13:16:04;17.40;99.90
17381;DHT22;8808;52.478;13.378;2023-08-06T13:18:31;17.50;99.90
17381;DHT22;8808;52.478;13.378;2023-08-06T13:20:58;17.50;99.90
17381;DHT22;8808;52.478;13.378;2023-08-06T13:23:25;17.50;99.90
17381;DHT22;8808;52.478;13.378;2023-08-06T13:25:53;17.40;99.90
17381;DHT22;8808;52.478;13.378;2023-08-06T13:28:21;17.30;99.90
17381;DHT22;8808;52.478;13.378;2023-08-06T13:30:48;17.40;99.90
17381;DHT22;8808;52.478;13.378;2023-08-06T13:33:15;17.40;99.90
17381;DHT22;8808;52.478;13.378;2023-08-06T13:35:41;17.30;99.90
17381;DHT22;8808;52.478;13.378;2023-08-06T13:38:08;17.30;99.90
17381;DHT22;8808;52.478;13.378;2023-08-06T13:40:36;17.30;99.90
17381;DHT22;8808;52.478;13.378;2023-08-06T13:43:04;17.20;99.90
17381;DHT22;8808;52.478;13.378;2023-08-06T13:45:31;17.30;99.90
17381;DHT22;8808;52.478;13.378;2023-08-06T13:48:00;17.30;99.90
17381;DHT22;8808;52.478;13.378;2023-08-06T13:50:28;17.20;99.90
17381;DHT22;8808;52.478;13.378;2023-08-06T13:52:55;17.10;99.90
17381;DHT22;8808;52.478;13.378;2023-08-06T13:55:22;17.20;99.90
17381;DHT22;8808;52.478;13.378;2023-08-06T13:57:49;17.20;99.90
17381;DHT22;8808;52.478;13.378;2023-08-06T14:00:18;17.30;99.90
17381;DHT22;8808;52.478;13.378;2023-08-06T14:02:45;17.30;99.90
17381;DHT22;8808;52.478;13.378;2023-08-06T14:05:12;17.40;99.90
17381;DHT22;8808;52.478;13.378;2023-08-06T14:07:39;17.30;99.90
17381;DHT22;8808;52.478;13.378;2023-08-06T14:10:07;17.40;99.90
17381;DHT22;8808;52.478;13.378;2023-08-06T14:12:35;17.40;99.90
17381;DHT22;8808;52.478;13.378;2023-08-06T14:15:02;17.50;99.90
17381;DHT22;8808;52.478;13.378;2023-08-06T14:17:31;17.50;99.90
17381;DHT22;8808;52.478;13.378;2023-08-06T14:19:58;17.50;99.90
17381;DHT22;8808;52.478;13.378;2023-08-06T14:22:26;17.60;99.90
17381;DHT22;8808;52.478;13.378;2023-08-06T14:24:53;17.60;99.90
17381;DHT22;8808;52.478;13.378;2023-08-06T14:27:20;17.50;99.90
17381;DHT22;8808;52.478;13.378;2023-08-06T14:29:47;17.50;99.90
17381;DHT22;8808;52.478;13.378;2023-08-06T14:32:14;17.50;99.90
17381;DHT22;8808;52.478;13.378;2023-08-06T14:34:44;17.50;99.90
17381;DHT22;8808;52.478;13.378;2023-08-06T14:37:11;17.40;99.90
17381;DHT22;8808;52.478;13.378;2023-08-06T14:39:38;17.40;99.90
17381;DHT22;8808;52.478;13.378;2023-08-06T14:42:05;17.30;99.90
17381;DHT22;8808;52.478;13.378;2023-08-06T14:44:32;17.30;99.90
17381;DHT22;8808;52.478;13.378;2023-08-06T14:46:59;17.40;99.90
17381;DHT22;8808;52.478;13.378;2023-08-06T14:49:26;17.40;99.90
17381;DHT22;8808;52.478;13.378;2023-08-06T14:51:54;17.20;99.90
17381;DHT22;8808;52.478;13.378;2023-08-06T14:54:25;17.20;99.90
17381;DHT22;8808;52.478;13.378;2023-08-06T14:56:52;17.10;99.90
17381;DHT22;8808;52.478;13.378;2023-08-06T14:59:18;17.20;99.90
17381;DHT22;8808;52.478;13.378;2023-08-06T15:01:45;17.20;99.90
17381;DHT22;8808;52.478;13.378;2023-08-06T15:04:12;17.30;99.90
17381;DHT22;8808;52.478;13.378;2023-08-06T15:06:39;17.20;99.90
17381;DHT22;8808;52.478;13.378;2023-08-06T15:09:08;17.30;99.90
17381;DHT22;8808;52.478;13.378;2023-08-06T15:11:35;17.30;99.90
17381;DHT22;8808;52.478;13.378;2023-08-06T15:14:02;17.30;99.90
17381;DHT22;8808;52.478;13.378;2023-08-06T15:16:30;17.30;99.90
17381;DHT22;8808;52.478;13.378;2023-08-06T15:18:59;17.40;99.90
17381;DHT22;8808;52.478;13.378;2023-08-06T15:21:26;17.40;99.90
17381;DHT22;8808;52.478;13.378;2023-08-06T15:23:53;17.40;99.90
17381;DHT22;8808;52.478;13.378;2023-08-06T15:26:21;17.50;99.90
17381;DHT22;8808;52.478;13.378;2023-08-06T15:28:48;17.50;99.90
17381;DHT22;8808;52.478;13.378;2023-08-06T15:31:19;17.40;99.90
17381;DHT22;8808;52.478;13.378;2023-08-06T15:33:46;17.40;99.90
17381;DHT22;8808;52.478;13.378;2023-08-06T15:36:13;17.40;99.90
17381;DHT22;8808;52.478;13.378;2023-08-06T15:38:40;17.40;99.90
17381;DHT22;8808;52.478;13.378;2023-08-06T15:41:07;17.40;99.90
17381;DHT22;8808;52.478;13.378;2023-08-06T15:43:36;17.30;99.90
17381;DHT22;8808;52.478;13.378;2023-08-06T15:46:03;17.30;99.90